Time;durP1;ratioP1;P1;durP2;ratioP2;P2;SDS_P1;SDS_P2;PMS_P1;PMS_P2;Temp;Humidity;BMP_temperature;BMP_pressure;BME280_temperature;BME280_humidity;BME280_pressure;Samples;Min_cycle;Max_cycle;Signal;HPM_P1;HPM_P2
2022/06/04 00:01:33;;;;;;;9.57;5.28;;;;;;;;;;5111396;28;20039;-64
2022/06/04 00:03:59;;;;;;;15.88;6.20;;;;;;;;;;5110623;28;20040;-65
2022/06/04 00:06:25;;;;;;;9.52;6.25;;;;;;;;;;5101831;28;20031;-64
2022/06/04 00:08:51;;;;;;;10.00;5.90;;;;;;;;;;5104910;28;20032;-65
2022/06/04 00:16:47;;;;;;;11.65;6.32;;;;;;;;;;5107077;28;20497;-64
2022/06/04 00:19:13;;;;;;;13.55;6.05;;;;;;;;;;5113964;28;20046;-65
2022/06/04 00:21:39;;;;;;;12.52;6.90;;;;;;;;;;5111630;28;20404;-64
2022/06/04 00:24:06;;;;;;;16.63;6.53;;;;;;;;;;5104313;28;20032;-64
2022/06/04 00:26:32;;;;;;;10.88;5.93;;;;;;;;;;5100610;28;20054;-64
2022/06/04 00:28:58;;;;;;;13.50;6.03;;;;;;;;;;5102565;28;20032;-65
2022/06/04 00:31:24;;;;;;;13.52;6.57;;;;;;;;;;5111401;28;20031;-64
2022/06/04 00:33:50;;;;;;;14.27;6.32;;;;;;;;;;5108732;28;20040;-64
2022/06/04 00:36:16;;;;;;;9.98;6.32;;;;;;;;;;5100943;28;20032;-64
2022/06/04 00:38:45;;;;;;;17.50;6.55;;;;;;;;;;5099720;28;20035;-64
2022/06/04 00:41:14;;;;;;;14.43;6.05;;;;;;;;;;5102586;28;20044;-64
2022/06/04 00:44:00;;;;;;;12.10;6.47;;;;;;;;;;5111238;28;20564;-64
2022/06/04 00:46:35;;;;;;;12.00;5.80;;;;;;;;;;5095898;28;20497;-64
2022/06/04 00:49:02;;;;;;;12.50;6.85;;;;;;;;;;5110603;28;20396;-65
2022/06/04 00:51:28;;;;;;;14.27;6.55;;;;;;;;;;5110243;28;20038;-65
2022/06/04 00:53:55;;;;;;;15.27;7.10;;;;;;;;;;5108504;28;20039;-64
2022/06/04 00:56:30;;;;;;;9.70;7.28;;;;;;;;;;5110659;28;20119;-64
2022/06/04 00:58:56;;;;;;;13.32;7.07;;;;;;;;;;5105342;28;20043;-64
2022/06/04 01:01:22;;;;;;;14.65;7.32;;;;;;;;;;5114477;27;20036;-64
2022/06/04 01:04:03;;;;;;;15.25;7.80;;;;;;;;;;5106221;28;20043;-64
2022/06/04 01:06:30;;;;;;;;;;;;;;;;;;5115224;28;20115;-65
2022/06/04 01:09:02;;;;;;;15.30;7.15;;;;;;;;;;5113068;28;20006;-65
2022/06/04 01:11:28;;;;;;;15.98;7.28;;;;;;;;;;5109016;28;20036;-64
2022/06/04 01:14:13;;;;;;;16.33;7.85;;;;;;;;;;5113117;27;20035;-65
2022/06/04 01:16:57;;;;;;;16.52;7.70;;;;;;;;;;5110263;28;20046;-65
2022/06/04 01:19:39;;;;;;;17.52;7.50;;;;;;;;;;5096512;28;20076;-65
2022/06/04 01:22:28;;;;;;;16.05;7.53;;;;;;;;;;5114738;28;20031;-65
2022/06/04 01:25:15;;;;;;;17.67;7.75;;;;;;;;;;5100283;28;20501;-65
2022/06/04 01:27:44;;;;;;;14.32;7.57;;;;;;;;;;5110330;28;20042;-65
2022/06/04 01:30:14;;;;;;;14.93;7.43;;;;;;;;;;5110135;28;20078;-65
2022/06/04 01:32:40;;;;;;;15.15;7.70;;;;;;;;;;5114658;27;20127;-65
2022/06/04 01:35:18;;;;;;;14.25;7.65;;;;;;;;;;5109284;27;20463;-64
2022/06/04 01:37:54;;;;;;;13.13;7.75;;;;;;;;;;5110395;28;20044;-64
2022/06/04 01:43:10;;;;;;;15.13;8.13;;;;;;;;;;5114320;28;20047;-64
2022/06/04 01:45:37;;;;;;;14.60;7.80;;;;;;;;;;5130054;22;20403;-63
2022/06/04 01:48:04;;;;;;;14.27;8.15;;;;;;;;;;5098257;28;20072;-63
2022/06/04 01:50:34;;;;;;;14.80;6.90;;;;;;;;;;5112916;27;20039;-63
2022/06/04 01:53:03;;;;;;;13.57;7.43;;;;;;;;;;5116017;27;20038;-63
2022/06/04 01:55:41;;;;;;;17.55;7.45;;;;;;;;;;5117930;27;20074;-63
2022/06/04 01:58:10;;;;;;;14.18;7.38;;;;;;;;;;5092470;28;20405;-63
2022/06/04 02:00:39;;;;;;;18.85;8.85;;;;;;;;;;5100074;28;20054;-63
2022/06/04 02:03:14;;;;;;;18.48;8.18;;;;;;;;;;5092997;28;20455;-63
2022/06/04 02:05:43;;;;;;;18.77;9.13;;;;;;;;;;5091918;28;20614;-63
2022/06/04 02:08:12;;;;;;;16.25;9.15;;;;;;;;;;5090550;28;20074;-63
2022/06/04 02:10:40;;;;;;;17.42;8.45;;;;;;;;;;5091525;28;20028;-63
2022/06/04 02:13:09;;;;;;;17.60;9.05;;;;;;;;;;5092520;28;20489;-63
2022/06/04 02:15:42;;;;;;;17.23;8.38;;;;;;;;;;5099392;28;20062;-63
2022/06/04 02:18:09;;;;;;;22.48;8.43;;;;;;;;;;5100778;28;20148;-63
2022/06/04 02:20:35;;;;;;;14.30;8.32;;;;;;;;;;5093395;28;20405;-63
2022/06/04 02:23:02;;;;;;;15.63;8.13;;;;;;;;;;5090957;28;20039;-63
2022/06/04 02:25:29;;;;;;;17.27;8.52;;;;;;;;;;5091002;28;20089;-63
2022/06/04 02:27:55;;;;;;;16.85;8.20;;;;;;;;;;5093902;28;20036;-63
2022/06/04 02:30:21;;;;;;;18.02;8.18;;;;;;;;;;5099365;28;20046;-63
2022/06/04 02:33:06;;;;;;;16.83;8.45;;;;;;;;;;5096540;28;20350;-63
2022/06/04 02:35:45;;;;;;;18.05;7.93;;;;;;;;;;5087641;28;20044;-63
2022/06/04 02:38:30;;;;;;;16.65;8.15;;;;;;;;;;5085651;28;20085;-63
2022/06/04 02:41:00;;;;;;;15.38;7.82;;;;;;;;;;5090752;28;20524;-63
2022/06/04 02:43:34;;;;;;;18.08;7.95;;;;;;;;;;5087412;28;20109;-63
2022/06/04 02:46:11;;;;;;;18.67;7.97;;;;;;;;;;5091945;28;20040;-63
2022/06/04 02:48:39;;;;;;;15.05;7.32;;;;;;;;;;5076033;28;20032;-63
2022/06/04 02:51:08;;;;;;;13.02;8.07;;;;;;;;;;5092844;28;20126;-63
2022/06/04 02:53:35;;;;;;;20.35;7.57;;;;;;;;;;5090482;28;20118;-63
2022/06/04 02:56:09;;;;;;;14.20;7.45;;;;;;;;;;5091796;28;20442;-63
2022/06/04 02:58:36;;;;;;;14.23;7.13;;;;;;;;;;5091879;28;20044;-63
2022/06/04 03:01:03;;;;;;;16.08;7.13;;;;;;;;;;5099360;28;20051;-63
2022/06/04 03:03:29;;;;;;;18.17;8.05;;;;;;;;;;5089190;28;20482;-63
2022/06/04 03:05:57;;;;;;;17.75;8.05;;;;;;;;;;5090245;28;20455;-63
2022/06/04 03:08:24;;;;;;;16.63;7.63;;;;;;;;;;5073399;28;20393;-63
2022/06/04 03:10:50;;;;;;;16.23;7.60;;;;;;;;;;5083821;28;20040;-63
2022/06/04 03:13:16;;;;;;;12.93;7.07;;;;;;;;;;5102250;28;20404;-63
2022/06/04 03:15:43;;;;;;;16.52;7.47;;;;;;;;;;5099518;28;20092;-63
2022/06/04 03:18:09;;;;;;;16.90;7.38;;;;;;;;;;5088054;28;20079;-63
2022/06/04 03:20:35;;;;;;;15.88;7.20;;;;;;;;;;5089483;28;20058;-63
2022/06/04 03:23:01;;;;;;;13.13;7.15;;;;;;;;;;5090476;28;20036;-63
2022/06/04 03:25:28;;;;;;;12.65;7.00;;;;;;;;;;5072938;28;20089;-63
2022/06/04 03:27:54;;;;;;;15.00;6.45;;;;;;;;;;5081513;28;20501;-63
2022/06/04 03:30:20;;;;;;;12.18;6.90;;;;;;;;;;5088350;28;20036;-63
2022/06/04 03:32:46;;;;;;;13.60;7.80;;;;;;;;;;5091763;28;20386;-64
2022/06/04 03:35:14;;;;;;;12.30;6.90;;;;;;;;;;5087671;28;20047;-63
2022/06/04 03:37:40;;;;;;;11.43;6.45;;;;;;;;;;5094796;28;20084;-63
2022/06/04 03:40:06;;;;;;;14.07;7.07;;;;;;;;;;5094024;28;20116;-63
2022/06/04 03:42:32;;;;;;;17.02;7.57;;;;;;;;;;5095990;28;20039;-63
2022/06/04 03:44:58;;;;;;;13.13;6.85;;;;;;;;;;5064228;28;20039;-63
2022/06/04 03:47:25;;;;;;;10.70;6.63;;;;;;;;;;5096773;28;20051;-63
2022/06/04 03:49:51;;;;;;;12.57;6.00;;;;;;;;;;5089097;28;20051;-63
2022/06/04 03:52:17;;;;;;;12.38;6.45;;;;;;;;;;5091934;28;20125;-63
2022/06/04 03:54:53;;;;;;;13.70;7.50;;;;;;;;;;5091151;28;20036;-63
2022/06/04 03:57:37;;;;;;;17.17;6.53;;;;;;;;;;5089603;28;20136;-63
2022/06/04 04:00:07;;;;;;;12.00;6.47;;;;;;;;;;5100215;28;20040;-63
2022/06/04 04:02:33;;;;;;;14.07;7.22;;;;;;;;;;5085430;28;20398;-63
2022/06/04 04:04:59;;;;;;;14.55;6.90;;;;;;;;;;5077916;28;20032;-63
2022/06/04 04:07:25;;;;;;;17.23;7.35;;;;;;;;;;5078606;28;20040;-63
2022/06/04 04:09:51;;;;;;;13.57;7.07;;;;;;;;;;5072851;28;20040;-63
2022/06/04 04:12:17;;;;;;;14.50;7.72;;;;;;;;;;5086425;28;20028;-63
2022/06/04 04:14:43;;;;;;;11.70;6.88;;;;;;;;;;5087818;28;20032;-63
2022/06/04 04:17:09;;;;;;;15.25;7.82;;;;;;;;;;5072233;28;20050;-63
2022/06/04 04:19:36;;;;;;;16.13;7.95;;;;;;;;;;5090435;28;20493;-63
2022/06/04 04:22:02;;;;;;;13.73;7.57;;;;;;;;;;5071675;28;20136;-63
2022/06/04 04:24:28;;;;;;;16.65;7.85;;;;;;;;;;5093062;28;20120;-63
2022/06/04 04:26:54;;;;;;;16.63;7.47;;;;;;;;;;5087805;28;20592;-63
2022/06/04 04:29:20;;;;;;;14.57;7.50;;;;;;;;;;5089961;28;20505;-63
2022/06/04 04:31:46;;;;;;;16.52;8.48;;;;;;;;;;5095362;28;20039;-63
2022/06/04 04:34:12;;;;;;;13.18;6.93;;;;;;;;;;5091092;28;20453;-63
2022/06/04 04:36:38;;;;;;;14.27;7.38;;;;;;;;;;5090506;28;21398;-63
2022/06/04 04:39:04;;;;;;;13.98;7.90;;;;;;;;;;5088527;28;20497;-63
2022/06/04 04:41:30;;;;;;;19.23;7.53;;;;;;;;;;5077022;28;20085;-63
2022/06/04 04:43:56;;;;;;;15.85;7.75;;;;;;;;;;5087295;28;20051;-63
2022/06/04 04:46:22;;;;;;;13.07;7.10;;;;;;;;;;5093636;28;20119;-63
2022/06/04 04:48:49;;;;;;;13.35;7.05;;;;;;;;;;5092132;28;20070;-63
2022/06/04 04:51:20;;;;;;;14.10;7.90;;;;;;;;;;5092956;28;20489;-63
2022/06/04 04:53:47;;;;;;;13.98;6.35;;;;;;;;;;5094162;28;20067;-63
2022/06/04 04:56:17;;;;;;;12.10;6.20;;;;;;;;;;5096633;28;20047;-63
2022/06/04 04:58:43;;;;;;;12.57;6.28;;;;;;;;;;5076655;28;20039;-63
2022/06/04 05:01:16;;;;;;;12.60;6.65;;;;;;;;;;5091179;28;20070;-63
2022/06/04 05:03:44;;;;;;;12.73;6.93;;;;;;;;;;5092150;28;20044;-63
2022/06/04 05:06:10;;;;;;;13.75;6.43;;;;;;;;;;5070060;28;20044;-63
2022/06/04 05:08:36;;;;;;;11.30;6.57;;;;;;;;;;5091305;28;20406;-63
2022/06/04 05:11:16;;;;;;;10.88;6.70;;;;;;;;;;5094234;28;20043;-63
2022/06/04 05:13:43;;;;;;;10.82;5.60;;;;;;;;;;5090338;28;20089;-63
2022/06/04 05:16:09;;;;;;;8.90;5.88;;;;;;;;;;5072089;28;20505;-63
2022/06/04 05:18:35;;;;;;;13.13;6.40;;;;;;;;;;5093352;28;20085;-63
2022/06/04 05:21:11;;;;;;;11.52;6.00;;;;;;;;;;5094042;28;20511;-63
2022/06/04 05:23:38;;;;;;;10.13;5.50;;;;;;;;;;5089097;28;20066;-63
2022/06/04 05:26:04;;;;;;;13.07;5.90;;;;;;;;;;5069436;28;20055;-63
2022/06/04 05:28:30;;;;;;;10.57;6.30;;;;;;;;;;5084977;28;20035;-63
2022/06/04 05:30:56;;;;;;;9.40;5.55;;;;;;;;;;5089441;28;20074;-63
2022/06/04 05:33:22;;;;;;;11.13;5.78;;;;;;;;;;5088489;28;20055;-63
2022/06/04 05:35:48;;;;;;;10.35;5.57;;;;;;;;;;5088911;28;20047;-63
2022/06/04 05:38:14;;;;;;;8.57;4.88;;;;;;;;;;5090685;28;20085;-63
2022/06/04 05:40:40;;;;;;;12.98;5.60;;;;;;;;;;5072130;28;20089;-64
2022/06/04 05:43:06;;;;;;;9.23;5.75;;;;;;;;;;5089892;28;20039;-64
2022/06/04 05:45:32;;;;;;;8.10;4.65;;;;;;;;;;5087334;28;20043;-64
2022/06/04 05:47:58;;;;;;;8.68;5.13;;;;;;;;;;5085688;28;20043;-64
2022/06/04 05:50:24;;;;;;;9.80;5.00;;;;;;;;;;5090261;28;20048;-64
2022/06/04 05:52:50;;;;;;;9.18;5.65;;;;;;;;;;5088331;28;20063;-64
2022/06/04 05:55:16;;;;;;;11.98;5.97;;;;;;;;;;5091451;28;20072;-63
2022/06/04 05:57:43;;;;;;;9.50;5.43;;;;;;;;;;5096665;28;20564;-64
2022/06/04 06:00:10;;;;;;;9.07;5.07;;;;;;;;;;5087742;28;20119;-64
2022/06/04 06:02:36;;;;;;;22.08;6.50;;;;;;;;;;5091618;28;20112;-64
2022/06/04 06:05:03;;;;;;;8.38;5.30;;;;;;;;;;5086896;28;20074;-64
2022/06/04 06:07:29;;;;;;;8.20;5.00;;;;;;;;;;5071818;28;20036;-64
2022/06/04 06:09:55;;;;;;;9.68;5.50;;;;;;;;;;5087431;28;20028;-64
2022/06/04 06:12:21;;;;;;;7.20;5.03;;;;;;;;;;5098597;28;20051;-64
2022/06/04 06:14:47;;;;;;;6.85;4.68;;;;;;;;;;5094359;28;20067;-64
2022/06/04 06:17:13;;;;;;;10.50;4.68;;;;;;;;;;5091160;28;20079;-64
2022/06/04 06:19:39;;;;;;;8.38;5.03;;;;;;;;;;5090102;28;20461;-64
2022/06/04 06:22:05;;;;;;;8.07;5.22;;;;;;;;;;5087992;28;20135;-64
2022/06/04 06:24:31;;;;;;;8.00;4.78;;;;;;;;;;5088678;28;20043;-64
2022/06/04 06:26:59;;;;;;;9.60;5.00;;;;;;;;;;5095810;28;20040;-64
2022/06/04 06:29:27;;;;;;;9.70;5.03;;;;;;;;;;5087401;28;20043;-64
2022/06/04 06:31:54;;;;;;;8.55;4.70;;;;;;;;;;5076496;28;20562;-64
2022/06/04 06:34:21;;;;;;;7.90;5.05;;;;;;;;;;5089881;28;20063;-64
2022/06/04 06:36:47;;;;;;;8.20;5.15;;;;;;;;;;5089721;28;20043;-64
2022/06/04 06:39:14;;;;;;;9.38;4.88;;;;;;;;;;5084189;28;20036;-64
2022/06/04 06:41:40;;;;;;;8.90;5.20;;;;;;;;;;5086692;28;20032;-64
2022/06/04 06:44:06;;;;;;;8.15;5.25;;;;;;;;;;5088685;28;20048;-64
2022/06/04 06:46:38;;;;;;;7.90;4.75;;;;;;;;;;5086143;28;20040;-64
2022/06/04 06:49:06;;;;;;;8.10;5.10;;;;;;;;;;5090885;28;20040;-64
2022/06/04 06:51:34;;;;;;;8.98;5.25;;;;;;;;;;5094476;28;20032;-64
2022/06/04 06:54:00;;;;;;;9.52;5.60;;;;;;;;;;5094138;28;20044;-64
2022/06/04 06:56:27;;;;;;;10.82;5.20;;;;;;;;;;5091018;28;20390;-64
2022/06/04 06:58:54;;;;;;;13.10;5.60;;;;;;;;;;5091418;28;20566;-64
2022/06/04 07:01:21;;;;;;;11.73;5.35;;;;;;;;;;5095390;28;20068;-64
2022/06/04 07:03:50;;;;;;;7.60;5.07;;;;;;;;;;5092508;28;20075;-64
2022/06/04 07:06:26;;;;;;;7.50;5.30;;;;;;;;;;5076406;28;20447;-64
2022/06/04 07:08:52;;;;;;;7.97;5.00;;;;;;;;;;5087753;28;20170;-64
2022/06/04 07:11:18;;;;;;;8.52;5.30;;;;;;;;;;5095137;28;20051;-64
2022/06/04 07:13:45;;;;;;;9.80;4.95;;;;;;;;;;5093676;28;20039;-64
2022/06/04 07:16:11;;;;;;;8.73;4.90;;;;;;;;;;5092116;28;20505;-64
2022/06/04 07:18:38;;;;;;;8.93;4.82;;;;;;;;;;5085547;28;20035;-64
2022/06/04 07:21:06;;;;;;;7.70;4.72;;;;;;;;;;5091185;28;20472;-64
2022/06/04 07:23:34;;;;;;;7.00;4.43;;;;;;;;;;5085847;28;20481;-64
2022/06/04 07:26:01;;;;;;;7.05;4.57;;;;;;;;;;5083071;28;20050;-64
2022/06/04 07:28:27;;;;;;;7.47;4.75;;;;;;;;;;5085945;28;20032;-64
2022/06/04 07:30:54;;;;;;;8.50;4.97;;;;;;;;;;5084489;28;20047;-64
2022/06/04 07:33:21;;;;;;;8.88;4.72;;;;;;;;;;5069251;28;20063;-64
2022/06/04 07:35:50;;;;;;;9.38;4.55;;;;;;;;;;5091399;28;20198;-64
2022/06/04 07:38:17;;;;;;;7.68;4.50;;;;;;;;;;5069033;28;20715;-64
2022/06/04 07:40:44;;;;;;;6.78;4.80;;;;;;;;;;5087284;28;20049;-64
2022/06/04 07:43:10;;;;;;;10.55;4.72;;;;;;;;;;5098173;28;20028;-64
2022/06/04 07:45:36;;;;;;;7.30;4.65;;;;;;;;;;5091298;28;20059;-65
2022/06/04 07:48:03;;;;;;;8.27;5.03;;;;;;;;;;5138267;22;20043;-63
2022/06/04 07:50:29;;;;;;;8.35;4.78;;;;;;;;;;5119461;27;20070;-63
2022/06/04 07:52:56;;;;;;;12.60;5.15;;;;;;;;;;5123638;27;20459;-63
2022/06/04 07:55:22;;;;;;;8.05;4.55;;;;;;;;;;5123631;27;20404;-62
2022/06/04 07:57:48;;;;;;;9.25;5.65;;;;;;;;;;5124317;27;20039;-63
2022/06/04 08:00:15;;;;;;;11.30;4.90;;;;;;;;;;5120024;27;20044;-62
2022/06/04 08:02:42;;;;;;;9.88;4.75;;;;;;;;;;5124472;27;20045;-63
2022/06/04 08:05:08;;;;;;;7.32;5.07;;;;;;;;;;5123813;27;20039;-62
2022/06/04 08:07:36;;;;;;;8.25;4.85;;;;;;;;;;5126025;27;20035;-62
2022/06/04 08:10:03;;;;;;;8.23;4.80;;;;;;;;;;5123483;28;20437;-62
2022/06/04 08:12:34;;;;;;;9.63;5.35;;;;;;;;;;5117936;28;20027;-63
2022/06/04 08:15:00;;;;;;;8.88;4.78;;;;;;;;;;5112701;28;20063;-63
2022/06/04 08:17:27;;;;;;;8.00;4.75;;;;;;;;;;5117125;28;20035;-63
2022/06/04 08:19:53;;;;;;;9.15;4.65;;;;;;;;;;5113922;28;20042;-63
2022/06/04 08:22:19;;;;;;;7.47;4.93;;;;;;;;;;5112287;28;20043;-63
2022/06/04 08:24:47;;;;;;;11.00;4.95;;;;;;;;;;5120320;28;20035;-63
2022/06/04 08:27:13;;;;;;;8.73;4.93;;;;;;;;;;5111258;28;20102;-63
2022/06/04 08:29:39;;;;;;;7.35;4.78;;;;;;;;;;5119215;28;20031;-63
2022/06/04 08:32:06;;;;;;;5.45;4.28;;;;;;;;;;5112325;28;20050;-62
2022/06/04 08:34:32;;;;;;;11.02;4.80;;;;;;;;;;5111867;28;20046;-63
2022/06/04 08:36:59;;;;;;;8.93;4.80;;;;;;;;;;5111525;28;20096;-62
2022/06/04 08:39:25;;;;;;;8.23;4.95;;;;;;;;;;5125453;27;20037;-62
2022/06/04 08:42:13;;;;;;;10.10;5.15;;;;;;;;;;5125927;27;20043;-62
2022/06/04 08:44:39;;;;;;;7.65;4.75;;;;;;;;;;5104523;28;20043;-62
2022/06/04 08:47:25;;;;;;;8.65;4.90;;;;;;;;;;5119577;28;20043;-62
2022/06/04 08:50:10;;;;;;;8.32;5.07;;;;;;;;;;5111614;28;20071;-62
2022/06/04 08:52:39;;;;;;;7.43;4.80;;;;;;;;;;5116004;28;20035;-61
2022/06/04 08:58:21;;;;;;;8.88;4.93;;;;;;;;;;5120556;27;20047;-62
2022/06/04 09:00:47;;;;;;;8.05;4.75;;;;;;;;;;5113116;28;20051;-62
2022/06/04 09:03:19;;;;;;;8.60;4.60;;;;;;;;;;5123648;28;20027;-62
2022/06/04 09:06:03;;;;;;;11.68;5.20;;;;;;;;;;5131681;28;20050;-62
2022/06/04 09:08:35;;;;;;;7.68;5.00;;;;;;;;;;5122434;28;20497;-62
2022/06/04 09:11:04;;;;;;;7.00;4.05;;;;;;;;;;5111530;28;20173;-62
2022/06/04 09:13:41;;;;;;;10.00;5.93;;;;;;;;;;5122069;28;20497;-62
2022/06/04 09:16:20;;;;;;;9.02;4.88;;;;;;;;;;5119790;28;20075;-62
2022/06/04 09:18:49;;;;;;;7.10;4.68;;;;;;;;;;5114985;28;20093;-62
2022/06/04 09:21:15;;;;;;;10.73;5.68;;;;;;;;;;5115564;27;20043;-62
2022/06/04 09:23:44;;;;;;;7.60;4.60;;;;;;;;;;5118817;27;20046;-62
2022/06/04 09:26:13;;;;;;;7.57;4.30;;;;;;;;;;5117762;27;20114;-62
2022/06/04 09:28:58;;;;;;;8.50;4.55;;;;;;;;;;5123627;27;20035;-62
2022/06/04 09:31:35;;;;;;;7.45;5.03;;;;;;;;;;5114789;28;20036;-62
2022/06/04 09:34:03;;;;;;;6.18;4.90;;;;;;;;;;5114965;28;20036;-62
2022/06/04 09:36:34;;;;;;;10.43;4.45;;;;;;;;;;5118999;27;20492;-63
2022/06/04 09:39:17;;;;;;;11.63;5.53;;;;;;;;;;5125519;27;20046;-62
2022/06/04 09:41:49;;;;;;;8.05;4.75;;;;;;;;;;5126464;27;20292;-62
2022/06/04 09:44:16;;;;;;;8.30;4.90;;;;;;;;;;5127114;27;20043;-62
2022/06/04 09:46:46;;;;;;;6.15;4.47;;;;;;;;;;5134616;27;20505;-62
2022/06/04 09:49:18;;;;;;;7.18;4.85;;;;;;;;;;5135505;27;20111;-62
2022/06/04 09:51:44;;;;;;;8.85;4.97;;;;;;;;;;5134438;27;20046;-62
2022/06/04 09:54:20;;;;;;;8.57;4.57;;;;;;;;;;5121392;27;20063;-62
2022/06/04 09:56:50;;;;;;;8.02;5.10;;;;;;;;;;5122342;27;20412;-62
2022/06/04 09:59:19;;;;;;;8.95;4.95;;;;;;;;;;5114358;28;20083;-62
2022/06/04 10:02:08;;;;;;;8.15;5.20;;;;;;;;;;5113930;28;20040;-62
2022/06/04 10:04:36;;;;;;;7.50;4.80;;;;;;;;;;5113050;28;20040;-62
2022/06/04 10:07:06;;;;;;;7.68;4.75;;;;;;;;;;5121379;27;20040;-62
2022/06/04 10:12:20;;;;;;;7.30;5.18;;;;;;;;;;5114100;28;20044;-62
2022/06/04 10:14:59;;;;;;;8.95;4.95;;;;;;;;;;5114225;28;20413;-62
2022/06/04 10:17:37;;;;;;;8.35;4.70;;;;;;;;;;5113642;28;20389;-62
2022/06/04 10:20:03;;;;;;;6.88;5.20;;;;;;;;;;5115306;27;20043;-62
2022/06/04 10:22:29;;;;;;;6.00;4.93;;;;;;;;;;5125398;27;20043;-62
2022/06/04 10:24:57;;;;;;;7.90;4.82;;;;;;;;;;5132221;27;20043;-62
2022/06/04 10:27:23;;;;;;;8.35;4.80;;;;;;;;;;5113197;28;20047;-62
2022/06/04 10:30:22;;;;;;;10.60;5.32;;;;;;;;;;5114032;28;20036;-62
2022/06/04 10:32:57;;;;;;;7.68;5.50;;;;;;;;;;5079421;28;20505;-62
2022/06/04 10:35:29;;;;;;;6.40;4.25;;;;;;;;;;5117855;27;20042;-62
2022/06/04 10:38:04;;;;;;;6.85;4.32;;;;;;;;;;5121615;27;20047;-62
2022/06/04 10:40:48;;;;;;;7.25;4.50;;;;;;;;;;5129999;27;20043;-62
2022/06/04 10:43:26;;;;;;;8.50;4.90;;;;;;;;;;5134061;27;20088;-62
2022/06/04 10:45:52;;;;;;;7.63;5.38;;;;;;;;;;5133485;27;20043;-62
2022/06/04 10:48:27;;;;;;;9.55;4.88;;;;;;;;;;5133621;27;20042;-62
2022/06/04 10:53:49;;;;;;;8.10;4.95;;;;;;;;;;5125599;27;20040;-62
2022/06/04 10:56:18;;;;;;;10.45;5.85;;;;;;;;;;5113202;28;20454;-62
2022/06/04 10:59:02;;;;;;;8.02;5.35;;;;;;;;;;5113044;28;20071;-62
2022/06/04 11:01:31;;;;;;;9.48;5.40;;;;;;;;;;5112901;28;20117;-62
2022/06/04 11:04:17;;;;;;;7.05;4.90;;;;;;;;;;5116332;27;20043;-62
2022/06/04 11:06:46;;;;;;;6.78;4.65;;;;;;;;;;5128014;27;20042;-62
2022/06/04 11:09:24;;;;;;;6.90;5.03;;;;;;;;;;5120912;27;20042;-62
2022/06/04 11:11:53;;;;;;;6.85;4.72;;;;;;;;;;5121020;27;20044;-62
2022/06/04 11:14:19;;;;;;;7.07;4.88;;;;;;;;;;5113108;28;20036;-62
2022/06/04 11:16:48;;;;;;;6.38;4.55;;;;;;;;;;5112162;28;20318;-63
2022/06/04 11:19:37;;;;;;;8.32;5.35;;;;;;;;;;5121887;27;20042;-63
2022/06/04 11:22:03;;;;;;;7.97;5.35;;;;;;;;;;5117170;27;20081;-62
2022/06/04 11:24:51;;;;;;;8.85;5.40;;;;;;;;;;5112241;28;20047;-63
2022/06/04 11:27:23;;;;;;;8.57;5.13;;;;;;;;;;5112541;28;20044;-63
2022/06/04 11:29:53;;;;;;;6.45;4.10;;;;;;;;;;5112879;28;20390;-63
2022/06/04 11:32:31;;;;;;;10.80;4.90;;;;;;;;;;5094469;28;20040;-63
2022/06/04 11:35:06;;;;;;;8.52;5.28;;;;;;;;;;5121101;27;20039;-63
2022/06/04 11:37:47;;;;;;;7.75;4.75;;;;;;;;;;5117483;27;20050;-63
2022/06/04 11:40:33;;;;;;;7.10;4.40;;;;;;;;;;5117937;27;20043;-63
2022/06/04 11:43:10;;;;;;;6.32;4.47;;;;;;;;;;5112253;28;20042;-63
2022/06/04 11:45:52;;;;;;;8.15;4.97;;;;;;;;;;5112108;28;20110;-63
2022/06/04 11:48:41;;;;;;;9.95;3.95;;;;;;;;;;5116157;27;20032;-63
2022/06/04 11:51:19;;;;;;;7.32;3.90;;;;;;;;;;5128449;27;20040;-63
2022/06/04 11:53:58;;;;;;;8.77;3.22;;;;;;;;;;5129184;27;20050;-63
2022/06/04 11:56:27;;;;;;;8.40;3.60;;;;;;;;;;5131733;27;20174;-63
2022/06/04 11:59:11;;;;;;;5.45;3.90;;;;;;;;;;5132713;27;20042;-63
2022/06/04 12:01:43;;;;;;;7.85;4.30;;;;;;;;;;5132161;27;20045;-63
2022/06/04 12:04:29;;;;;;;4.80;3.08;;;;;;;;;;5120315;27;20046;-63
2022/06/04 12:07:00;;;;;;;5.55;3.75;;;;;;;;;;5120428;28;20066;-63
2022/06/04 12:09:26;;;;;;;5.50;2.97;;;;;;;;;;5118423;28;20043;-63
2022/06/04 12:12:04;;;;;;;6.13;3.40;;;;;;;;;;5112245;28;20044;-63
2022/06/04 12:14:49;;;;;;;5.35;3.47;;;;;;;;;;5111590;28;20378;-63
2022/06/04 12:17:24;;;;;;;5.18;3.45;;;;;;;;;;5118670;28;20074;-63
2022/06/04 12:25:42;;;;;;;5.28;3.10;;;;;;;;;;5120132;28;20489;-63
2022/06/04 12:28:25;;;;;;;6.40;3.42;;;;;;;;;;5111583;28;20119;-63
2022/06/04 12:30:51;;;;;;;4.50;3.60;;;;;;;;;;5113189;28;20039;-63
2022/06/04 12:33:32;;;;;;;5.55;3.30;;;;;;;;;;5118691;28;20456;-63
2022/06/04 12:36:03;;;;;;;9.35;3.67;;;;;;;;;;5117888;28;20040;-63
2022/06/04 12:38:30;;;;;;;4.38;3.35;;;;;;;;;;5102217;28;20053;-63
2022/06/04 12:41:08;;;;;;;4.38;2.90;;;;;;;;;;5112184;27;20363;-63
2022/06/04 12:43:38;;;;;;;4.65;3.45;;;;;;;;;;5131775;28;20508;-63
2022/06/04 12:46:28;;;;;;;7.03;3.80;;;;;;;;;;5110092;28;20050;-63
2022/06/04 12:49:06;;;;;;;6.35;3.33;;;;;;;;;;5123661;28;20081;-63
2022/06/04 12:51:32;;;;;;;4.63;3.20;;;;;;;;;;5123616;27;20512;-63
2022/06/04 12:54:18;;;;;;;5.38;3.17;;;;;;;;;;5125306;27;20079;-63
2022/06/04 12:56:44;;;;;;;5.00;3.20;;;;;;;;;;5084097;28;20073;-63
2022/06/04 12:59:28;;;;;;;4.57;3.05;;;;;;;;;;5115369;28;20036;-63
2022/06/04 13:01:54;;;;;;;4.68;3.13;;;;;;;;;;5125014;27;20492;-63
2022/06/04 13:04:22;;;;;;;5.90;3.70;;;;;;;;;;5126469;27;20405;-63
2022/06/04 13:07:03;;;;;;;5.07;3.42;;;;;;;;;;5124170;27;20430;-63
2022/06/04 13:09:35;;;;;;;4.65;3.33;;;;;;;;;;5115205;28;20096;-63
2022/06/04 13:12:01;;;;;;;5.22;3.00;;;;;;;;;;5115094;28;20043;-63
2022/06/04 13:14:48;;;;;;;4.30;3.40;;;;;;;;;;5118105;27;20031;-63
2022/06/04 13:17:17;;;;;;;4.63;3.30;;;;;;;;;;5123261;27;20123;-63
2022/06/04 13:19:55;;;;;;;5.82;3.35;;;;;;;;;;5121692;27;20119;-63
2022/06/04 13:22:27;;;;;;;5.05;3.40;;;;;;;;;;5129132;27;20082;-63
2022/06/04 13:24:53;;;;;;;4.80;3.38;;;;;;;;;;5135456;27;20043;-63
2022/06/04 13:27:34;;;;;;;4.28;3.58;;;;;;;;;;5135538;27;20096;-63
2022/06/04 13:30:01;;;;;;;4.40;3.47;;;;;;;;;;5132631;27;20063;-63
2022/06/04 13:32:27;;;;;;;6.38;3.40;;;;;;;;;;5116731;27;20042;-63
2022/06/04 13:35:01;;;;;;;6.03;3.47;;;;;;;;;;5131298;27;20034;-63
2022/06/04 13:37:31;;;;;;;5.25;3.58;;;;;;;;;;5124274;27;20114;-63
2022/06/04 13:39:57;;;;;;;6.60;3.47;;;;;;;;;;5119670;27;20043;-63
2022/06/04 13:42:27;;;;;;;5.75;3.63;;;;;;;;;;5114675;28;20153;-63
2022/06/04 13:44:58;;;;;;;6.38;3.80;;;;;;;;;;5118236;27;20152;-63
2022/06/04 13:50:06;;;;;;;6.72;3.65;;;;;;;;;;5545991;22;20071;-65
2022/06/04 13:52:41;;;;;;;4.20;3.80;;;;;;;;;;5113345;28;20419;-65
2022/06/04 13:55:08;;;;;;;6.53;3.15;;;;;;;;;;5097248;28;20231;-65
2022/06/04 13:57:40;;;;;;;5.60;3.33;;;;;;;;;;5094141;28;20040;-64
2022/06/04 14:00:08;;;;;;;4.95;3.40;;;;;;;;;;5093093;28;20044;-63
2022/06/04 14:02:35;;;;;;;5.70;3.50;;;;;;;;;;5091334;22;20040;-61
2022/06/04 14:07:47;;;;;;;6.53;3.28;;;;;;;;;;5053516;28;20049;-61
2022/06/04 14:10:16;;;;;;;6.15;3.00;;;;;;;;;;5053473;28;20094;-61
2022/06/04 14:12:48;;;;;;;6.03;3.10;;;;;;;;;;5052808;28;20489;-61
2022/06/04 14:15:19;;;;;;;4.85;3.00;;;;;;;;;;5053358;28;20620;-61
2022/06/04 14:17:48;;;;;;;6.15;3.25;;;;;;;;;;5053581;28;20041;-61
2022/06/04 14:20:20;;;;;;;4.65;2.97;;;;;;;;;;5051759;28;20124;-61
2022/06/04 14:23:12;;;;;;;7.25;3.42;;;;;;;;;;5051771;28;20040;-61
2022/06/04 14:25:47;;;;;;;4.88;3.58;;;;;;;;;;5015140;28;20526;-61
2022/06/04 14:28:42;;;;;;;5.93;3.10;;;;;;;;;;5053375;28;20083;-62
2022/06/04 14:31:16;;;;;;;4.63;3.33;;;;;;;;;;5052937;28;20045;-62
2022/06/04 14:33:44;;;;;;;5.32;3.47;;;;;;;;;;5050449;28;20542;-62
2022/06/04 14:36:20;;;;;;;4.40;3.50;;;;;;;;;;5053237;28;20044;-62
2022/06/04 14:38:47;;;;;;;5.70;3.60;;;;;;;;;;5052607;28;20040;-62
2022/06/04 14:41:16;;;;;;;4.15;3.17;;;;;;;;;;5053171;28;20087;-62
2022/06/04 14:44:01;;;;;;;6.20;3.72;;;;;;;;;;5051363;28;20069;-62
2022/06/04 14:46:39;;;;;;;6.35;3.45;;;;;;;;;;5049352;28;20045;-62
2022/06/04 14:49:24;;;;;;;7.00;2.97;;;;;;;;;;5051868;28;20579;-62
2022/06/04 14:51:56;;;;;;;4.18;3.00;;;;;;;;;;5052654;28;20120;-62
2022/06/04 14:54:23;;;;;;;5.63;3.08;;;;;;;;;;5051663;28;20040;-62
2022/06/04 14:57:07;;;;;;;4.45;3.35;;;;;;;;;;5052590;28;20049;-62
2022/06/04 14:59:43;;;;;;;4.57;3.10;;;;;;;;;;5050946;28;20140;-63
2022/06/04 15:02:20;;;;;;;7.38;3.22;;;;;;;;;;5052701;28;20067;-62
2022/06/04 15:07:38;;;;;;;5.78;3.05;;;;;;;;;;5052256;28;20052;-63
2022/06/04 15:10:04;;;;;;;6.95;3.15;;;;;;;;;;5051744;28;20040;-62
2022/06/04 15:12:49;;;;;;;6.10;3.58;;;;;;;;;;5051288;28;20033;-63
2022/06/04 15:15:29;;;;;;;6.07;3.70;;;;;;;;;;5050228;28;20106;-62
2022/06/04 15:17:56;;;;;;;4.78;3.28;;;;;;;;;;5052409;28;20049;-63
2022/06/04 15:20:28;;;;;;;4.75;3.38;;;;;;;;;;5052130;28;20056;-63
2022/06/04 15:23:06;;;;;;;4.43;2.67;;;;;;;;;;5051777;28;20151;-63
2022/06/04 15:25:39;;;;;;;4.95;3.00;;;;;;;;;;5052270;28;20150;-62
2022/06/04 15:33:52;;;;;;;5.47;3.17;;;;;;;;;;5050829;28;20033;-62
2022/06/04 15:34:08;;;;;;;5.88;3.20;;;;;;;;;;5047169;28;20040;-63